Time;durP1;ratioP1;P1;durP2;ratioP2;P2;SDS_P1;SDS_P2;PMS_P1;PMS_P2;Temp;Humidity;BMP_temperature;BMP_pressure;BME280_temperature;BME280_humidity;BME280_pressure;Samples;Min_cycle;Max_cycle;Signal;HPM_P1;HPM_P2
2023/10/02 00:01:51;;;;;;;10.93;5.65;;;;;;;;;;6230150;23;20042;-83
2023/10/02 00:04:23;;;;;;;10.23;5.18;;;;;;;;;;6240221;23;20012;-82
2023/10/02 00:07:06;;;;;;;8.60;5.40;;;;;;;;;;6163532;23;20052;-83
2023/10/02 00:09:33;;;;;;;11.82;5.22;;;;;;;;;;6190898;23;20025;-82
2023/10/02 00:12:01;;;;;;;7.72;5.15;;;;;;;;;;6214379;23;20000;-83
2023/10/02 00:14:34;;;;;;;6.95;5.18;;;;;;;;;;6216645;23;20072;-82
2023/10/02 00:19:35;;;;;;;15.00;6.47;;;;;;;;;;6243142;23;20000;-82
2023/10/02 00:22:06;;;;;;;11.60;6.90;;;;;;;;;;6191620;23;20027;-80
2023/10/02 00:24:32;;;;;;;13.70;6.37;;;;;;;;;;6215399;23;20017;-82
2023/10/02 00:26:58;;;;;;;13.65;5.93;;;;;;;;;;6216008;23;20009;-82
2023/10/02 00:29:26;;;;;;;16.02;6.32;;;;;;;;;;6243404;23;20012;-82
2023/10/02 00:31:53;;;;;;;8.48;5.68;;;;;;;;;;6189334;23;20000;-83
2023/10/02 00:34:30;;;;;;;6.53;5.03;;;;;;;;;;6213425;23;20012;-83
2023/10/02 00:36:57;;;;;;;11.20;6.07;;;;;;;;;;6240817;23;20024;-82
2023/10/02 06:16:07;;;;;;;4.00;3.63;;;;;;;;;;6203095;22;20818;-82
2023/10/02 06:18:33;;;;;;;4.32;3.17;;;;;;;;;;6270794;22;20073;-84
2023/10/02 06:21:03;;;;;;;3.33;3.05;;;;;;;;;;6271337;22;20007;-84
2023/10/02 06:23:38;;;;;;;7.83;4.20;;;;;;;;;;6271264;23;20020;-84
2023/10/02 06:26:10;;;;;;;4.45;4.05;;;;;;;;;;6241050;23;20257;-83
2023/10/02 06:28:36;;;;;;;3.83;3.50;;;;;;;;;;6265485;23;20023;-84
2023/10/02 06:31:06;;;;;;;4.88;4.47;;;;;;;;;;6268630;23;20075;-81
2023/10/02 06:33:36;;;;;;;4.78;4.28;;;;;;;;;;6270266;22;20102;-83
2023/10/02 06:36:07;;;;;;;5.65;4.68;;;;;;;;;;6269642;22;20063;-80
2023/10/02 06:38:33;;;;;;;7.78;4.68;;;;;;;;;;6269246;23;20075;-82
2023/10/02 06:41:00;;;;;;;5.10;4.60;;;;;;;;;;6232079;23;20012;-82
2023/10/02 06:43:29;;;;;;;5.13;4.72;;;;;;;;;;6202971;23;20020;-81
2023/10/02 06:46:18;;;;;;;5.60;5.03;;;;;;;;;;6250404;23;20024;-81
2023/10/02 06:48:45;;;;;;;5.22;4.72;;;;;;;;;;6229458;23;20043;-80
2023/10/02 06:51:15;;;;;;;5.38;4.88;;;;;;;;;;6236379;23;20079;-81
2023/10/02 06:53:41;;;;;;;6.38;4.85;;;;;;;;;;6263451;23;20015;-81
2023/10/02 06:56:10;;;;;;;8.88;5.32;;;;;;;;;;6259548;22;20012;-80
2023/10/02 06:58:50;;;;;;;5.57;5.07;;;;;;;;;;6252800;22;20043;-82
2023/10/02 07:01:19;;;;;;;3.83;3.53;;;;;;;;;;6247368;23;20015;-81
2023/10/02 07:03:51;;;;;;;3.92;3.35;;;;;;;;;;6247951;23;20102;-81
2023/10/02 07:06:19;;;;;;;5.63;4.90;;;;;;;;;;6253282;22;20012;-82
2023/10/02 07:08:48;;;;;;;5.35;4.82;;;;;;;;;;6254533;22;20035;-82
2023/10/02 07:11:14;;;;;;;5.07;4.45;;;;;;;;;;6250739;23;20018;-81
2023/10/02 07:13:51;;;;;;;7.88;4.55;;;;;;;;;;6245130;23;20015;-82
2023/10/02 07:16:17;;;;;;;5.22;4.43;;;;;;;;;;6244722;23;20530;-81
2023/10/02 07:18:49;;;;;;;4.93;4.50;;;;;;;;;;6246686;23;20019;-81
2023/10/02 07:21:19;;;;;;;5.25;4.75;;;;;;;;;;6247751;23;20034;-81
2023/10/02 07:23:45;;;;;;;5.22;4.72;;;;;;;;;;6248710;23;20020;-81
2023/10/02 07:26:15;;;;;;;5.60;4.68;;;;;;;;;;6251607;22;20035;-82
2023/10/02 07:28:50;;;;;;;8.32;4.97;;;;;;;;;;6269534;23;20016;-85
2023/10/02 11:16:37;;;;;;;7.45;3.15;;;;;;;;;;6225375;22;20008;-85
2023/10/02 17:14:26;;;;;;;6.97;5.80;;;;;;;;;;6240226;22;20024;-72
2023/10/02 17:16:53;;;;;;;12.30;5.85;;;;;;;;;;6242505;23;20101;-73
2023/10/02 17:19:19;;;;;;;9.02;5.78;;;;;;;;;;6215763;23;20095;-73
2023/10/02 17:21:47;;;;;;;13.20;5.85;;;;;;;;;;6215855;23;20054;-72
2023/10/02 17:24:13;;;;;;;16.88;5.47;;;;;;;;;;6215805;23;20012;-73
2023/10/02 17:26:39;;;;;;;14.52;5.55;;;;;;;;;;6216690;23;20022;-73
2023/10/02 17:29:05;;;;;;;10.75;6.05;;;;;;;;;;6244404;23;20034;-72
2023/10/02 17:31:31;;;;;;;10.95;5.90;;;;;;;;;;6242404;23;20354;-73
2023/10/02 17:33:58;;;;;;;10.02;5.78;;;;;;;;;;6213529;23;20024;-74
2023/10/02 17:36:27;;;;;;;32.90;20.17;;;;;;;;;;6241886;23;20510;-73
2023/10/02 17:38:53;;;;;;;15.80;8.82;;;;;;;;;;6215194;23;20012;-73
2023/10/02 17:41:19;;;;;;;10.82;5.47;;;;;;;;;;6214913;23;20074;-73
2023/10/02 17:43:48;;;;;;;11.32;6.18;;;;;;;;;;6190200;23;20096;-73
2023/10/02 17:46:14;;;;;;;13.85;5.22;;;;;;;;;;6213879;23;20091;-72
2023/10/02 17:48:40;;;;;;;10.95;5.43;;;;;;;;;;6215084;23;20078;-73
2023/10/02 17:51:06;;;;;;;25.92;14.80;;;;;;;;;;6242047;23;20012;-75
2023/10/02 17:53:32;;;;;;;7.22;4.90;;;;;;;;;;6241991;23;20616;-75
2023/10/02 17:55:58;;;;;;;9.00;5.30;;;;;;;;;;6242394;23;20012;-76
2023/10/02 17:58:24;;;;;;;9.38;5.53;;;;;;;;;;6215531;23;20020;-76
2023/10/02 18:00:50;;;;;;;17.40;5.22;;;;;;;;;;6215447;23;20008;-76
2023/10/02 18:03:16;;;;;;;13.60;5.20;;;;;;;;;;6190048;23;20016;-77
2023/10/02 18:05:43;;;;;;;8.05;4.88;;;;;;;;;;6190463;23;20452;-77
2023/10/02 18:08:09;;;;;;;7.45;4.57;;;;;;;;;;6251601;22;19995;-85
2023/10/02 20:21:30;;;;;;;3.60;2.83;;;;;;;;;;6238541;22;20029;-74
2023/10/02 20:23:56;;;;;;;4.60;2.30;;;;;;;;;;6240524;23;20019;-73
2023/10/02 20:26:22;;;;;;;2.47;2.28;;;;;;;;;;6213655;23;20469;-72
2023/10/02 20:28:48;;;;;;;6.00;2.85;;;;;;;;;;6241476;23;20024;-73
2023/10/02 20:31:14;;;;;;;6.35;2.03;;;;;;;;;;6215804;23;20388;-74
2023/10/02 20:33:43;;;;;;;3.45;2.38;;;;;;;;;;6215276;23;20016;-74
2023/10/02 20:36:11;;;;;;;2.85;2.30;;;;;;;;;;6191726;23;20009;-74
2023/10/02 20:38:37;;;;;;;2.58;2.38;;;;;;;;;;6242184;23;20065;-74
2023/10/02 20:41:03;;;;;;;6.18;2.88;;;;;;;;;;6215096;23;20398;-78
2023/10/02 20:43:29;;;;;;;5.72;2.53;;;;;;;;;;6191706;23;20023;-78
2023/10/02 20:45:55;;;;;;;6.25;3.13;;;;;;;;;;6216054;23;20407;-75
2023/10/02 20:48:21;;;;;;;6.10;3.20;;;;;;;;;;6215737;23;20499;-74
2023/10/02 20:50:47;;;;;;;3.28;2.97;;;;;;;;;;6191614;23;20012;-74
2023/10/02 20:53:13;;;;;;;3.05;2.60;;;;;;;;;;6243481;23;20140;-74
2023/10/02 20:55:39;;;;;;;4.18;2.78;;;;;;;;;;6216900;23;20027;-74
2023/10/02 20:58:05;;;;;;;2.60;2.40;;;;;;;;;;6194012;23;20035;-76
2023/10/02 21:00:35;;;;;;;4.20;2.55;;;;;;;;;;6252627;23;20012;-77
2023/10/02 21:03:01;;;;;;;3.90;2.33;;;;;;;;;;6204817;23;20012;-76
2023/10/02 21:05:27;;;;;;;6.75;3.38;;;;;;;;;;6226966;23;20035;-75
2023/10/02 21:07:53;;;;;;;3.85;2.70;;;;;;;;;;6216956;23;20346;-75
2023/10/02 21:10:19;;;;;;;2.97;2.78;;;;;;;;;;6243251;23;20043;-75
2023/10/02 21:12:46;;;;;;;2.72;2.50;;;;;;;;;;6243263;23;20456;-75
2023/10/02 21:15:13;;;;;;;2.53;2.17;;;;;;;;;;6216313;23;20011;-76
2023/10/02 21:17:40;;;;;;;2.88;2.20;;;;;;;;;;6190749;23;20035;-75
2023/10/02 21:20:16;;;;;;;7.47;2.65;;;;;;;;;;6242121;23;20016;-75
2023/10/02 21:22:42;;;;;;;8.63;3.60;;;;;;;;;;6241793;23;20008;-75
2023/10/02 21:25:09;;;;;;;4.18;3.85;;;;;;;;;;6215564;23;20016;-76
2023/10/02 21:27:38;;;;;;;8.77;3.90;;;;;;;;;;6215442;23;20011;-75
2023/10/02 21:30:14;;;;;;;4.35;3.63;;;;;;;;;;6241305;23;20019;-75
2023/10/02 21:32:41;;;;;;;4.18;3.88;;;;;;;;;;6220995;23;20066;-76
2023/10/02 21:35:11;;;;;;;5.10;4.10;;;;;;;;;;6206242;23;20004;-74
2023/10/02 21:37:37;;;;;;;4.22;3.83;;;;;;;;;;6254914;23;20024;-75
2023/10/02 21:40:06;;;;;;;5.25;3.78;;;;;;;;;;6241078;23;20095;-75
2023/10/02 21:42:33;;;;;;;2.90;2.67;;;;;;;;;;6188867;23;20020;-75
2023/10/02 21:44:59;;;;;;;4.43;2.70;;;;;;;;;;6191208;23;20104;-75
2023/10/02 21:47:25;;;;;;;3.50;3.20;;;;;;;;;;6243212;23;20027;-76
2023/10/02 21:49:52;;;;;;;5.82;3.00;;;;;;;;;;6244442;23;20016;-76
2023/10/02 21:52:18;;;;;;;4.60;4.25;;;;;;;;;;6216185;23;20012;-76
2023/10/02 21:54:47;;;;;;;7.00;3.55;;;;;;;;;;6242389;23;20016;-76
2023/10/02 21:57:14;;;;;;;3.25;2.92;;;;;;;;;;6216940;23;20008;-75
2023/10/02 21:59:40;;;;;;;8.25;3.00;;;;;;;;;;6216399;23;20012;-78
2023/10/02 22:02:10;;;;;;;3.58;3.28;;;;;;;;;;6216431;23;20031;-75
2023/10/02 22:04:42;;;;;;;8.40;3.42;;;;;;;;;;6242700;23;20012;-75
2023/10/02 22:07:08;;;;;;;8.73;3.40;;;;;;;;;;6217082;23;20067;-76
2023/10/02 22:09:33;;;;;;;3.30;2.85;;;;;;;;;;6242520;23;20074;-76
2023/10/02 22:12:02;;;;;;;9.52;2.85;;;;;;;;;;6242976;23;20441;-76
2023/10/02 22:14:29;;;;;;;6.75;2.75;;;;;;;;;;6215921;23;20043;-76
2023/10/02 22:16:57;;;;;;;3.88;3.22;;;;;;;;;;6243432;23;20023;-76
2023/10/02 22:19:24;;;;;;;7.82;5.07;;;;;;;;;;6216371;23;20011;-75
2023/10/02 22:21:50;;;;;;;5.38;4.70;;;;;;;;;;6242608;23;20027;-75
2023/10/02 22:24:16;;;;;;;5.53;4.18;;;;;;;;;;6242872;23;20016;-74
2023/10/02 22:26:42;;;;;;;4.93;3.17;;;;;;;;;;6215647;23;20103;-75
2023/10/02 22:29:12;;;;;;;5.45;4.10;;;;;;;;;;6242623;23;20020;-76
2023/10/02 22:31:38;;;;;;;6.28;4.07;;;;;;;;;;6242453;23;20042;-75
2023/10/02 22:34:05;;;;;;;10.50;5.00;;;;;;;;;;6242643;23;20012;-76
2023/10/02 22:36:32;;;;;;;12.45;4.63;;;;;;;;;;6215671;23;20061;-75
2023/10/02 22:38:58;;;;;;;10.07;5.40;;;;;;;;;;6242586;23;20016;-75
2023/10/02 22:41:24;;;;;;;5.63;5.03;;;;;;;;;;6215697;23;20058;-75
2023/10/02 22:43:51;;;;;;;14.52;5.22;;;;;;;;;;6242919;23;20012;-76
2023/10/02 22:46:18;;;;;;;6.53;4.72;;;;;;;;;;6216209;23;20012;-75
2023/10/02 22:48:44;;;;;;;4.32;3.92;;;;;;;;;;6215685;23;20074;-75
2023/10/02 22:51:20;;;;;;;4.18;3.70;;;;;;;;;;6215632;23;20019;-75
2023/10/02 22:53:48;;;;;;;3.63;3.33;;;;;;;;;;6215894;23;20421;-74
2023/10/02 22:56:15;;;;;;;7.07;4.13;;;;;;;;;;6244069;23;20475;-74
2023/10/02 22:58:42;;;;;;;4.88;3.63;;;;;;;;;;6190747;23;20127;-75
2023/10/02 23:01:08;;;;;;;7.53;3.80;;;;;;;;;;6242132;23;20016;-75
2023/10/02 23:03:35;;;;;;;6.75;3.72;;;;;;;;;;6242080;23;20022;-75
2023/10/02 23:06:09;;;;;;;5.80;3.80;;;;;;;;;;6215617;23;20507;-75
2023/10/02 23:08:36;;;;;;;5.50;2.97;;;;;;;;;;6242088;23;20019;-76
2023/10/02 23:11:06;;;;;;;4.13;2.97;;;;;;;;;;6242040;23;20035;-75
2023/10/02 23:13:35;;;;;;;5.82;3.17;;;;;;;;;;6217515;23;20468;-75
2023/10/02 23:16:02;;;;;;;6.65;4.60;;;;;;;;;;6216024;23;20008;-75
2023/10/02 23:18:29;;;;;;;10.43;5.40;;;;;;;;;;6215517;23;20107;-74
2023/10/02 23:20:58;;;;;;;6.95;5.00;;;;;;;;;;6242107;23;20477;-76
2023/10/02 23:23:25;;;;;;;6.57;4.28;;;;;;;;;;6215592;23;20016;-75
2023/10/02 23:25:52;;;;;;;5.78;4.65;;;;;;;;;;6215467;23;20008;-76
2023/10/02 23:28:18;;;;;;;7.22;4.05;;;;;;;;;;6242322;23;20090;-75
2023/10/02 23:30:44;;;;;;;2.95;2.60;;;;;;;;;;6215397;23;20445;-74
2023/10/02 23:33:10;;;;;;;7.25;2.47;;;;;;;;;;6242277;23;20012;-74
2023/10/02 23:35:43;;;;;;;4.38;2.63;;;;;;;;;;6215222;23;20338;-75
2023/10/02 23:38:14;;;;;;;3.38;2.78;;;;;;;;;;6242383;23;20012;-74
2023/10/02 23:40:43;;;;;;;3.35;2.30;;;;;;;;;;6215242;23;20452;-74
2023/10/02 23:43:13;;;;;;;4.22;2.30;;;;;;;;;;6242473;23;20020;-75
2023/10/02 23:45:42;;;;;;;2.70;2.50;;;;;;;;;;6215405;23;20019;-75
2023/10/02 23:48:12;;;;;;;4.30;2.42;;;;;;;;;;6215708;23;20107;-73
2023/10/02 23:50:43;;;;;;;2.58;2.38;;;;;;;;;;6214841;23;20139;-73
2023/10/02 23:53:09;;;;;;;2.53;2.20;;;;;;;;;;6215477;23;20104;-74
2023/10/02 23:55:38;;;;;;;3.33;2.25;;;;;;;;;;6215220;23;20016;-74
2023/10/02 23:58:05;;;;;;;3.45;2.50;;;;;;;;;;6190768;23;20012;-73
